Terminal Aerodrome Forecast
Issued by NWS Tampa Bay Area, FL

Home | Current Version | Previous Version | Text Only | Print | Product List | Glossary On
Versions: 1 2 3 4 5 6 7 8 9 10 11 12 13 14
000
FTUS42 KTBW 050540
TAFFMY
TAF
KFMY 050540Z 0506/0606 07003KT P6SM SCT250
     FM051500 15007KT P6SM SCT030 BKN250
     FM051800 24007KT P6SM VCTS SCT035CB BKN250
     FM060000 VRB03KT P6SM FEW040 BKN250=

USA.gov is the U.S. government's official web portal to all federal, state and local government web resources and services.